createdAt,value
2018-09-13T00:02:03.842Z,24.10
2018-09-13T00:04:31.945Z,24.09
2018-09-13T00:07:00.074Z,24.07
2018-09-13T00:09:28.162Z,23.80
2018-09-13T00:12:02.609Z,23.73
2018-09-13T00:14:30.728Z,23.64
2018-09-13T00:16:59.242Z,23.74
2018-09-13T00:19:27.792Z,23.83
2018-09-13T00:21:56.134Z,23.82
2018-09-13T00:24:26.845Z,23.71
2018-09-13T00:26:56.569Z,23.79
2018-09-13T00:29:24.952Z,23.67
2018-09-13T00:31:53.195Z,23.52
2018-09-13T00:34:21.871Z,23.45
2018-09-13T00:36:50.084Z,23.68
2018-09-13T00:39:18.665Z,23.47
2018-09-13T00:41:46.785Z,23.39
2018-09-13T00:44:15.349Z,23.41
2018-09-13T00:46:43.537Z,23.26
2018-09-13T00:49:11.742Z,23.39
2018-09-13T00:51:40.051Z,23.07
2018-09-13T00:54:08.263Z,23.21
2018-09-13T00:56:36.682Z,23.24
2018-09-13T00:59:04.972Z,23.23
2018-09-13T01:01:33.078Z,23.13
2018-09-13T01:04:01.194Z,23.19
2018-09-13T01:06:29.512Z,23.08
2018-09-13T01:08:57.862Z,22.92
2018-09-13T01:11:25.981Z,23.08
2018-09-13T01:13:55.144Z,22.85
2018-09-13T01:16:24.348Z,22.96
2018-09-13T01:18:53.038Z,22.98
2018-09-13T01:21:21.882Z,22.78
2018-09-13T01:23:50.020Z,22.95
2018-09-13T01:26:18.168Z,22.86
2018-09-13T01:28:46.344Z,22.90
2018-09-13T01:31:17.574Z,22.76
2018-09-13T01:33:45.670Z,21.86
2018-09-13T01:36:13.742Z,21.79
2018-09-13T01:38:41.938Z,21.60
2018-09-13T01:41:10.059Z,21.71
2018-09-13T01:43:38.260Z,21.66
2018-09-13T01:46:08.048Z,21.67
2018-09-13T01:48:37.147Z,21.74
2018-09-13T01:51:05.523Z,21.21
2018-09-13T01:53:33.642Z,21.70
2018-09-13T01:56:01.702Z,21.60
2018-09-13T01:58:29.815Z,21.45
2018-09-13T02:00:58.105Z,21.32
2018-09-13T02:03:27.060Z,21.31
2018-09-13T02:05:56.636Z,21.39
2018-09-13T02:08:26.276Z,21.46
2018-09-13T02:15:48.605Z,21.31
2018-09-13T02:18:17.719Z,21.18
2018-09-13T02:20:46.946Z,21.00
2018-09-13T02:23:17.479Z,21.24
2018-09-13T02:25:50.657Z,21.29
2018-09-13T02:28:18.794Z,21.20
2018-09-13T02:30:51.576Z,21.09
2018-09-13T02:33:19.756Z,21.17
2018-09-13T02:35:49.173Z,21.13
2018-09-13T02:38:18.420Z,20.97
2018-09-13T02:40:46.674Z,20.97
2018-09-13T02:43:14.808Z,20.91
2018-09-13T02:45:42.891Z,21.13
2018-09-13T02:48:11.128Z,20.86
2018-09-13T02:50:40.651Z,20.83
2018-09-13T02:53:11.130Z,20.83
2018-09-13T02:55:39.326Z,20.69
2018-09-13T02:58:10.161Z,20.78
2018-09-13T03:00:38.914Z,20.79
2018-09-13T03:03:07.733Z,20.77
2018-09-13T03:05:35.936Z,20.64
2018-09-13T03:08:05.459Z,20.71
2018-09-13T03:10:33.589Z,20.83
2018-09-13T03:13:03.620Z,20.74
2018-09-13T03:15:31.922Z,20.78
2018-09-13T03:18:01.179Z,20.60
2018-09-13T03:20:29.294Z,20.63
2018-09-13T03:22:58.170Z,20.62
2018-09-13T03:25:27.458Z,20.57
2018-09-13T03:27:55.917Z,20.58
2018-09-13T03:30:25.379Z,20.56
2018-09-13T03:32:53.815Z,20.55
2018-09-13T03:35:21.883Z,20.51
2018-09-13T03:37:50.036Z,20.40
2018-09-13T03:40:18.118Z,20.48
2018-09-13T03:42:47.534Z,20.47
2018-09-13T03:45:15.638Z,20.38
2018-09-13T03:47:44.186Z,20.58
2018-09-13T03:50:12.630Z,20.39
2018-09-13T03:52:40.924Z,20.34
2018-09-13T03:55:09.065Z,20.55
2018-09-13T03:57:37.180Z,20.30
2018-09-13T04:00:05.641Z,20.36
2018-09-13T04:02:36.012Z,20.44
2018-09-13T04:05:04.107Z,20.35
2018-09-13T04:07:32.266Z,20.26
2018-09-13T04:10:00.467Z,20.35
2018-09-13T04:12:29.669Z,20.38
2018-09-13T04:14:57.810Z,20.29
2018-09-13T04:17:26.444Z,20.42
2018-09-13T04:19:54.960Z,20.37
2018-09-13T04:22:23.530Z,20.31
2018-09-13T04:24:51.639Z,20.22
2018-09-13T04:27:19.789Z,20.27
2018-09-13T04:29:48.137Z,20.19
2018-09-13T04:32:16.467Z,20.34
2018-09-13T04:34:44.603Z,20.17
2018-09-13T04:37:12.807Z,20.11
2018-09-13T04:39:40.939Z,20.17
2018-09-13T04:42:09.204Z,20.14
2018-09-13T04:44:38.476Z,20.09
2018-09-13T04:47:06.550Z,19.93
2018-09-13T04:49:36.080Z,20.02
2018-09-13T04:52:05.158Z,20.11
2018-09-13T04:54:33.405Z,20.09
2018-09-13T04:57:01.565Z,20.23
2018-09-13T04:59:29.777Z,20.16
2018-09-13T05:01:57.899Z,19.95
2018-09-13T05:04:26.148Z,20.03
2018-09-13T05:06:56.312Z,20.12
2018-09-13T05:09:24.674Z,20.03
2018-09-13T05:11:53.108Z,20.07
2018-09-13T05:14:21.398Z,20.03
2018-09-13T05:16:50.414Z,20.12
2018-09-13T05:19:19.063Z,20.10
2018-09-13T05:21:47.376Z,20.12
2018-09-13T05:24:15.857Z,20.03
2018-09-13T05:26:44.032Z,19.97
2018-09-13T05:29:13.483Z,19.98
2018-09-13T05:31:41.750Z,20.16
2018-09-13T05:34:10.895Z,20.05
2018-09-13T05:36:39.175Z,20.27
2018-09-13T05:39:10.915Z,19.96
2018-09-13T05:41:39.544Z,19.96
2018-09-13T05:44:08.237Z,19.98
2018-09-13T05:46:36.382Z,20.02
2018-09-13T05:49:04.731Z,20.05
2018-09-13T05:51:32.942Z,20.22
2018-09-13T05:54:01.570Z,20.12
2018-09-13T05:56:29.894Z,20.11
2018-09-13T05:58:58.123Z,19.99
2018-09-13T06:01:27.385Z,19.67
2018-09-13T06:04:38.266Z,20.04
2018-09-13T06:07:06.726Z,19.99
2018-09-13T06:09:35.033Z,20.14
2018-09-13T06:12:03.188Z,20.22
2018-09-13T06:14:31.856Z,20.22
2018-09-13T06:17:00.173Z,20.01
2018-09-13T06:19:28.347Z,20.21
2018-09-13T06:21:56.617Z,20.20
2018-09-13T06:24:26.457Z,20.37
2018-09-13T06:26:54.631Z,20.17
2018-09-13T06:29:22.843Z,20.13
2018-09-13T06:31:50.990Z,20.09
2018-09-13T06:34:19.154Z,20.20
2018-09-13T06:36:47.307Z,20.28
2018-09-13T06:39:15.451Z,20.23
2018-09-13T06:41:43.657Z,20.42
2018-09-13T06:44:19.051Z,20.35
2018-09-13T06:46:58.916Z,20.35
2018-09-13T06:49:30.181Z,20.28
2018-09-13T06:51:59.824Z,20.47
2018-09-13T06:54:29.188Z,20.35
2018-09-13T06:56:57.627Z,20.43
2018-09-13T06:59:26.788Z,20.66
2018-09-13T07:01:55.440Z,20.82
2018-09-13T07:04:24.379Z,21.02
2018-09-13T07:06:52.667Z,21.01
2018-09-13T07:09:20.922Z,21.13
2018-09-13T07:11:49.036Z,21.06
2018-09-13T07:14:17.295Z,20.62
2018-09-13T07:16:46.846Z,20.83
2018-09-13T07:19:16.764Z,20.87
2018-09-13T07:21:45.581Z,20.92
2018-09-13T07:24:14.542Z,20.83
2018-09-13T07:26:42.623Z,20.93
2018-09-13T07:29:11.227Z,21.05
2018-09-13T07:31:39.585Z,21.10
2018-09-13T07:34:10.626Z,21.15
2018-09-13T07:36:38.875Z,21.31
2018-09-13T07:39:09.838Z,21.61
2018-09-13T07:41:38.203Z,21.63
2018-09-13T07:44:06.806Z,21.27
2018-09-13T07:46:35.108Z,21.47
2018-09-13T07:49:04.161Z,21.23
2018-09-13T07:51:33.084Z,21.50
2018-09-13T07:54:01.344Z,21.33
2018-09-13T07:56:32.217Z,21.52
2018-09-13T07:59:00.411Z,21.51
2018-09-13T08:01:29.935Z,21.47
2018-09-13T08:03:58.108Z,21.73
2018-09-13T08:11:19.823Z,22.43
2018-09-13T08:13:49.602Z,22.51
2018-09-13T08:16:17.980Z,22.77
2018-09-13T08:18:46.555Z,22.87
2018-09-13T08:21:14.998Z,22.71
2018-09-13T08:23:44.612Z,22.85
2018-09-13T08:26:12.894Z,22.68
2018-09-13T08:28:41.941Z,22.54
2018-09-13T08:31:10.086Z,22.81
2018-09-13T08:33:38.260Z,22.53
2018-09-13T08:36:06.450Z,22.72
2018-09-13T08:38:35.731Z,22.49
2018-09-13T08:41:03.847Z,22.86
2018-09-13T08:43:32.238Z,22.84
2018-09-13T08:46:00.791Z,22.77
2018-09-13T08:48:28.731Z,22.89
2018-09-13T08:50:57.668Z,23.06
2018-09-13T08:53:25.838Z,23.32
2018-09-13T08:55:54.591Z,23.08
2018-09-13T08:58:22.905Z,23.19
2018-09-13T09:00:51.110Z,23.26
2018-09-13T09:03:19.208Z,23.02
2018-09-13T09:05:47.336Z,22.99
2018-09-13T09:08:15.460Z,23.03
2018-09-13T09:10:43.937Z,23.11
2018-09-13T09:13:12.895Z,23.24
2018-09-13T09:15:41.975Z,23.52
2018-09-13T09:18:12.379Z,23.63
2018-09-13T09:20:40.618Z,23.85
2018-09-13T09:23:08.849Z,23.88
2018-09-13T09:25:37.757Z,24.13
2018-09-13T09:28:05.886Z,24.15
2018-09-13T09:30:34.016Z,24.07
2018-09-13T09:33:02.178Z,23.81
2018-09-13T09:35:36.799Z,23.46
2018-09-13T09:38:06.015Z,23.35
2018-09-13T09:40:36.332Z,23.18
2018-09-13T09:43:05.548Z,23.38
2018-09-13T09:45:34.072Z,23.01
2018-09-13T09:48:02.182Z,23.07
2018-09-13T09:50:30.341Z,23.33
2018-09-13T09:52:58.462Z,23.81
2018-09-13T09:55:27.688Z,23.85
2018-09-13T09:57:55.848Z,23.74
2018-09-13T10:00:28.995Z,23.91
2018-09-13T10:02:57.681Z,23.88
2018-09-13T10:05:26.549Z,24.16
2018-09-13T10:07:55.494Z,23.80
2018-09-13T10:10:24.595Z,24.15
2018-09-13T10:12:52.699Z,23.78
2018-09-13T10:15:26.088Z,24.16
2018-09-13T10:17:59.856Z,24.26
2018-09-13T10:20:38.147Z,24.17
2018-09-13T10:23:12.442Z,23.76
2018-09-13T10:25:46.060Z,23.74
2018-09-13T10:28:19.599Z,24.14
2018-09-13T10:30:52.963Z,24.24
2018-09-13T10:33:26.428Z,24.17
2018-09-13T10:36:00.149Z,24.17
2018-09-13T10:43:42.441Z,24.40
2018-09-13T10:46:15.999Z,24.75
2018-09-13T10:48:49.327Z,24.96
2018-09-13T10:51:21.664Z,25.03
2018-09-13T10:53:54.850Z,25.57
2018-09-13T10:56:24.209Z,25.89
2018-09-13T10:58:52.414Z,25.30
2018-09-13T11:01:21.003Z,25.29
2018-09-13T11:03:49.284Z,26.04
2018-09-13T11:06:20.116Z,25.97
2018-09-13T11:08:48.737Z,25.63
2018-09-13T11:11:18.029Z,25.36
2018-09-13T11:13:51.599Z,25.48
2018-09-13T11:16:20.520Z,25.49
2018-09-13T11:18:50.037Z,26.01
2018-09-13T11:21:18.613Z,26.14
2018-09-13T11:23:48.011Z,25.90
2018-09-13T11:26:17.246Z,26.31
2018-09-13T11:28:47.239Z,26.12
2018-09-13T11:31:15.660Z,25.59
2018-09-13T11:33:43.867Z,25.93
2018-09-13T11:36:13.694Z,26.19
2018-09-13T11:38:42.318Z,26.69
2018-09-13T11:41:11.101Z,26.69
2018-09-13T11:43:40.897Z,26.22
2018-09-13T11:46:09.635Z,25.77
2018-09-13T11:48:37.751Z,26.25
2018-09-13T11:51:06.572Z,26.26
2018-09-13T11:53:34.968Z,25.94
2018-09-13T11:56:03.143Z,26.01
2018-09-13T11:58:31.271Z,25.86
2018-09-13T12:00:59.413Z,25.89
2018-09-13T12:03:28.659Z,25.74
2018-09-13T12:05:57.179Z,25.78
2018-09-13T12:08:25.328Z,25.77
2018-09-13T12:10:53.478Z,25.35
2018-09-13T12:13:21.982Z,25.89
2018-09-13T12:15:50.357Z,26.17
2018-09-13T12:18:18.754Z,26.21
2018-09-13T12:20:47.366Z,26.30
2018-09-13T12:23:15.670Z,26.76
2018-09-13T12:25:44.854Z,27.25
2018-09-13T12:28:12.979Z,27.16
2018-09-13T12:30:41.169Z,26.38
2018-09-13T12:33:09.281Z,26.25
2018-09-13T12:35:37.473Z,26.17
2018-09-13T12:38:05.831Z,26.15
2018-09-13T12:40:35.030Z,25.59
2018-09-13T12:43:03.259Z,25.41
2018-09-13T12:45:32.529Z,25.27
2018-09-13T12:48:00.764Z,25.81
2018-09-13T12:50:29.576Z,25.69
2018-09-13T12:52:58.649Z,25.60
2018-09-13T12:55:31.961Z,25.45
2018-09-13T12:58:00.120Z,26.45
2018-09-13T13:00:28.471Z,27.12
2018-09-13T13:02:56.779Z,26.54
2018-09-13T13:05:24.927Z,26.44
2018-09-13T13:07:53.334Z,26.30
2018-09-13T13:10:21.921Z,26.27
2018-09-13T13:12:50.238Z,26.22
2018-09-13T13:15:19.096Z,26.20
2018-09-13T13:17:47.291Z,26.44
2018-09-13T13:20:15.568Z,26.71
2018-09-13T13:22:43.983Z,27.16
2018-09-13T13:25:12.198Z,26.84
2018-09-13T13:27:40.405Z,26.26
2018-09-13T13:30:08.718Z,26.75
2018-09-13T13:32:37.581Z,26.98
2018-09-13T13:35:05.746Z,27.20
2018-09-13T13:37:33.996Z,27.61
2018-09-13T13:40:02.450Z,27.40
2018-09-13T13:42:31.449Z,26.84
2018-09-13T13:44:59.678Z,26.13
2018-09-13T13:47:28.923Z,26.31
2018-09-13T13:49:57.421Z,26.22
2018-09-13T13:52:26.030Z,26.13
2018-09-13T13:54:54.284Z,26.09
2018-09-13T13:57:22.553Z,26.00
2018-09-13T13:59:51.570Z,25.93
2018-09-13T14:02:19.981Z,25.82
2018-09-13T14:04:49.481Z,25.54
2018-09-13T14:07:17.843Z,25.52
2018-09-13T14:09:46.085Z,25.44
2018-09-13T14:12:14.348Z,25.35
2018-09-13T14:14:44.825Z,25.46
2018-09-13T14:17:13.126Z,25.35
2018-09-13T14:19:41.275Z,24.93
2018-09-13T14:22:09.476Z,25.36
2018-09-13T14:24:38.082Z,25.31
2018-09-13T14:27:06.561Z,25.43
2018-09-13T14:29:35.096Z,25.92
2018-09-13T14:32:03.447Z,26.56
2018-09-13T14:34:38.518Z,26.64
2018-09-13T14:37:07.211Z,26.56
2018-09-13T14:39:35.692Z,26.23
2018-09-13T14:42:04.748Z,25.68
2018-09-13T14:44:33.185Z,25.39
2018-09-13T14:47:01.550Z,25.47
2018-09-13T14:49:30.291Z,25.37
2018-09-13T14:51:59.563Z,25.51
2018-09-13T14:54:28.274Z,25.11
2018-09-13T14:56:57.544Z,25.08
2018-09-13T14:59:25.692Z,25.17
2018-09-13T15:01:54.094Z,24.86
2018-09-13T15:04:23.473Z,24.66
2018-09-13T15:06:52.618Z,24.66
2018-09-13T15:09:20.965Z,24.48
2018-09-13T15:11:49.710Z,24.45
2018-09-13T15:14:18.286Z,24.54
2018-09-13T15:16:46.578Z,24.52
2018-09-13T15:19:16.230Z,24.45
2018-09-13T15:21:45.506Z,24.41
2018-09-13T15:24:13.924Z,24.37
2018-09-13T15:26:42.202Z,24.00
2018-09-13T15:29:12.190Z,24.14
2018-09-13T15:31:40.350Z,23.97
2018-09-13T15:34:09.613Z,24.21
2018-09-13T15:36:37.722Z,24.27
2018-09-13T15:39:08.886Z,24.07
2018-09-13T15:41:37.370Z,23.70
2018-09-13T15:44:05.848Z,24.01
2018-09-13T15:46:34.400Z,23.92
2018-09-13T15:49:02.902Z,24.01
2018-09-13T15:51:32.418Z,24.11
2018-09-13T15:54:02.164Z,23.96
2018-09-13T15:56:31.064Z,23.85
2018-09-13T15:59:00.746Z,23.31
2018-09-13T16:01:29.474Z,23.47
2018-09-13T16:03:58.967Z,23.44
2018-09-13T16:06:28.243Z,23.45
2018-09-13T16:08:59.694Z,23.35
2018-09-13T16:11:29.985Z,23.37
2018-09-13T16:13:58.128Z,23.47
2018-09-13T16:16:28.185Z,23.53
2018-09-13T16:18:56.632Z,23.61
2018-09-13T16:21:26.852Z,23.57
2018-09-13T16:23:55.211Z,23.64
2018-09-13T16:26:23.600Z,23.48
2018-09-13T16:28:52.641Z,23.53
2018-09-13T16:31:20.919Z,23.41
2018-09-13T16:33:49.159Z,23.44
2018-09-13T16:36:23.741Z,23.49
2018-09-13T16:39:07.062Z,23.51
2018-09-13T16:41:54.932Z,23.47
2018-09-13T16:44:56.318Z,23.40
2018-09-13T16:47:31.480Z,23.39
2018-09-13T16:50:02.671Z,23.38
2018-09-13T16:52:31.629Z,23.38
2018-09-13T16:55:00.884Z,23.26
2018-09-13T16:57:30.587Z,23.24
2018-09-13T17:00:00.597Z,23.20
2018-09-13T17:02:30.911Z,23.22
2018-09-13T17:04:59.738Z,23.14
2018-09-13T17:07:28.558Z,23.06
2018-09-13T17:09:56.704Z,23.20
2018-09-13T17:12:25.524Z,23.21
2018-09-13T17:14:53.621Z,23.16
2018-09-13T17:17:22.278Z,23.03
2018-09-13T17:19:51.287Z,22.97
2018-09-13T17:22:19.857Z,23.00
2018-09-13T17:24:48.039Z,22.82
2018-09-13T17:27:18.095Z,22.77
2018-09-13T17:32:22.443Z,22.75
2018-09-13T17:34:50.573Z,22.41
2018-09-13T17:37:18.741Z,22.46
2018-09-13T17:39:47.240Z,22.31
2018-09-13T17:42:15.426Z,22.46
2018-09-13T17:44:43.578Z,22.22
2018-09-13T17:47:12.314Z,22.03
2018-09-13T17:49:40.444Z,22.16
2018-09-13T17:52:08.656Z,22.18
2018-09-13T17:54:36.789Z,22.25
2018-09-13T17:57:04.894Z,22.21
2018-09-13T17:59:33.127Z,22.12
2018-09-13T18:02:01.932Z,22.18
2018-09-13T18:04:30.791Z,22.18
2018-09-13T18:07:01.776Z,21.91
2018-09-13T18:09:30.293Z,21.91
2018-09-13T18:12:00.051Z,21.95
2018-09-13T18:14:28.562Z,21.90
2018-09-13T18:19:22.150Z,21.90
2018-09-13T18:21:50.283Z,21.83
2018-09-13T18:24:18.483Z,21.93
2018-09-13T18:26:48.105Z,21.90
2018-09-13T18:29:16.512Z,21.76
2018-09-13T18:31:44.756Z,21.77
2018-09-13T18:34:13.530Z,21.66
2018-09-13T18:36:41.883Z,21.73
2018-09-13T18:39:11.846Z,21.61
2018-09-13T18:41:40.439Z,21.70
2018-09-13T18:44:08.577Z,21.85
2018-09-13T18:46:37.132Z,21.69
2018-09-13T18:49:05.367Z,21.76
2018-09-13T18:51:33.568Z,21.80
2018-09-13T18:54:01.888Z,21.86
2018-09-13T19:01:27.995Z,21.69
2018-09-13T19:03:57.171Z,21.57
2018-09-13T19:06:25.304Z,21.67
2018-09-13T19:08:53.539Z,21.56
2018-09-13T19:11:22.421Z,21.54
2018-09-13T19:13:50.557Z,21.42
2018-09-13T19:16:19.147Z,21.19
2018-09-13T19:18:47.765Z,21.27
2018-09-13T19:21:16.146Z,21.18
2018-09-13T19:23:44.798Z,21.30
2018-09-13T19:26:13.485Z,21.34
2018-09-13T19:28:41.675Z,21.34
2018-09-13T19:31:11.582Z,21.28
2018-09-13T19:33:39.670Z,21.23
2018-09-13T19:36:08.355Z,21.26
2018-09-13T19:38:37.237Z,21.08
2018-09-13T19:41:06.502Z,20.95
2018-09-13T19:43:34.703Z,21.29
2018-09-13T19:46:03.229Z,21.16
2018-09-13T19:48:31.486Z,21.07
2018-09-13T19:51:01.815Z,21.02
2018-09-13T19:53:32.336Z,21.08
2018-09-13T19:56:01.484Z,21.02
2018-09-13T19:58:30.398Z,21.08
2018-09-13T20:00:58.976Z,21.01
2018-09-13T20:03:27.370Z,21.07
2018-09-13T20:05:55.727Z,21.13
2018-09-13T20:08:23.946Z,21.12
2018-09-13T20:10:52.186Z,21.09
2018-09-13T20:13:20.342Z,21.08
2018-09-13T20:15:49.296Z,21.24
2018-09-13T20:18:18.673Z,21.18
2018-09-13T20:20:46.657Z,21.13
2018-09-13T20:23:14.867Z,21.02
2018-09-13T20:25:42.991Z,21.03
2018-09-13T20:28:11.334Z,21.11
2018-09-13T20:30:40.745Z,21.26
2018-09-13T20:33:08.996Z,21.20
2018-09-13T20:35:37.047Z,21.20
2018-09-13T20:38:05.140Z,21.03
2018-09-13T20:40:33.594Z,21.04
2018-09-13T20:43:01.720Z,20.97
2018-09-13T20:45:30.623Z,20.84
2018-09-13T20:47:58.766Z,20.90
2018-09-13T20:50:27.278Z,21.16
2018-09-13T20:52:55.667Z,21.10
2018-09-13T20:55:24.795Z,20.74
2018-09-13T20:57:53.111Z,20.86
2018-09-13T21:00:21.330Z,20.79
2018-09-13T21:02:50.994Z,20.90
2018-09-13T21:05:19.732Z,21.06
2018-09-13T21:07:48.345Z,21.04
2018-09-13T21:10:16.584Z,21.02
2018-09-13T21:12:45.274Z,20.90
2018-09-13T21:15:13.453Z,21.03
2018-09-13T21:17:41.927Z,21.03
2018-09-13T21:20:10.060Z,21.02
2018-09-13T21:22:38.287Z,21.07
2018-09-13T21:25:06.388Z,20.90
2018-09-13T21:27:35.582Z,21.07
2018-09-13T21:30:03.715Z,21.00
2018-09-13T21:34:56.560Z,20.94
2018-09-13T21:37:25.116Z,20.97
2018-09-13T21:39:53.229Z,20.95
2018-09-13T21:42:21.355Z,20.90
2018-09-13T21:44:49.475Z,20.70
2018-09-13T21:47:17.891Z,20.90
2018-09-13T21:49:46.505Z,20.88
2018-09-13T21:52:14.798Z,20.76
2018-09-13T21:54:42.910Z,20.75
2018-09-13T21:57:11.567Z,20.71
2018-09-13T21:59:39.723Z,20.65
2018-09-13T22:02:08.048Z,20.61
2018-09-13T22:04:36.205Z,20.65
2018-09-13T22:07:04.360Z,20.70
2018-09-13T22:09:32.537Z,20.58
2018-09-13T22:12:00.954Z,20.52
2018-09-13T22:14:29.364Z,20.56
2018-09-13T22:17:02.875Z,20.38
2018-09-13T22:19:31.141Z,20.61
2018-09-13T22:21:59.482Z,20.45
2018-09-13T22:24:27.785Z,20.50
2018-09-13T22:26:55.967Z,20.40
2018-09-13T22:29:24.166Z,20.53
2018-09-13T22:31:53.809Z,20.57
2018-09-13T22:34:22.023Z,20.52
2018-09-13T22:36:50.333Z,20.22
2018-09-13T22:39:19.576Z,20.41
2018-09-13T22:41:47.671Z,20.44
2018-09-13T22:44:15.775Z,20.44
2018-09-13T22:46:44.948Z,20.38
2018-09-13T22:49:13.117Z,20.44
2018-09-13T22:51:41.433Z,20.48
2018-09-13T22:54:09.555Z,20.26
2018-09-13T22:56:38.423Z,20.39
2018-09-13T22:59:06.530Z,19.99
2018-09-13T23:01:35.250Z,19.93
2018-09-13T23:04:04.274Z,20.16
2018-09-13T23:06:32.524Z,19.96
2018-09-13T23:09:02.863Z,19.93
2018-09-13T23:11:31.290Z,19.92
2018-09-13T23:14:00.052Z,20.03
2018-09-13T23:16:29.101Z,19.91
2018-09-13T23:18:57.323Z,19.88
2018-09-13T23:21:25.637Z,20.05
2018-09-13T23:23:54.328Z,20.03
2018-09-13T23:26:22.505Z,20.14
2018-09-13T23:28:51.392Z,20.05
2018-09-13T23:31:19.483Z,20.19
2018-09-13T23:33:48.142Z,19.97
2018-09-13T23:36:16.332Z,20.04
2018-09-13T23:38:44.436Z,19.99
2018-09-13T23:41:12.533Z,20.05
2018-09-13T23:43:40.632Z,20.03
2018-09-13T23:46:09.394Z,19.95
2018-09-13T23:48:37.493Z,19.91
2018-09-13T23:51:05.959Z,19.91
2018-09-13T23:53:36.534Z,19.84
2018-09-13T23:56:05.095Z,19.85
2018-09-13T23:58:33.381Z,19.91
